Trevor, Wisconsin
Current Conditions -  °F | °C
As of 8:53 AM on Tuesday 21 Oct 2014 (Local Time) from KENW Reporting Station
Overcast Overcast  
Wind Chill: 43°   Ceiling: 3500
Heat Index: 47°   Visibility: 10mi
Dew Point: 40°   Wind: 9mph
Humidity: 77%   Direction: 340°NNW
Pressure: 30.15"   Gusts: NA
Location:  42.51°N, 88.12°W
Report Text: KENW 211353Z 34008KT 10SM OVC035 08/04 A3015 RMK AO2 SLP214 T00830044
Loading
Personal Weather Stations






























Interactive Weather Map New forecast layout! Learn more

10-Day Weather Forecast

Advertisements
Track Severe Weather on mobile